sensor_id;sensor_type;location;lat;lon;timestamp;P1;durP1;ratioP1;P2;durP2;ratioP2
17714;SDS011;8977;50.902;4.314;2024-03-08T00:01:59;18.00;;;12.67;;
17714;SDS011;8977;50.902;4.314;2024-03-08T00:04:26;16.80;;;12.00;;
17714;SDS011;8977;50.902;4.314;2024-03-08T00:06:53;17.07;;;12.00;;
17714;SDS011;8977;50.902;4.314;2024-03-08T00:09:20;17.93;;;12.40;;
17714;SDS011;8977;50.902;4.314;2024-03-08T00:11:47;17.37;;;12.50;;
17714;SDS011;8977;50.902;4.314;2024-03-08T00:14:15;16.70;;;12.33;;
17714;SDS011;8977;50.902;4.314;2024-03-08T00:16:44;24.23;;;13.10;;
17714;SDS011;8977;50.902;4.314;2024-03-08T00:19:10;18.53;;;13.40;;
17714;SDS011;8977;50.902;4.314;2024-03-08T00:21:37;16.90;;;12.40;;
17714;SDS011;8977;50.902;4.314;2024-03-08T00:24:05;17.70;;;12.50;;
17714;SDS011;8977;50.902;4.314;2024-03-08T00:26:32;16.93;;;12.33;;
17714;SDS011;8977;50.902;4.314;2024-03-08T00:28:59;18.40;;;13.00;;
17714;SDS011;8977;50.902;4.314;2024-03-08T00:31:26;17.17;;;12.83;;
17714;SDS011;8977;50.902;4.314;2024-03-08T00:33:54;19.17;;;12.53;;
17714;SDS011;8977;50.902;4.314;2024-03-08T00:36:22;17.63;;;13.37;;
17714;SDS011;8977;50.902;4.314;2024-03-08T00:38:50;19.70;;;12.83;;
17714;SDS011;8977;50.902;4.314;2024-03-08T00:41:17;17.27;;;13.63;;
17714;SDS011;8977;50.902;4.314;2024-03-08T00:43:44;18.80;;;13.37;;
17714;SDS011;8977;50.902;4.314;2024-03-08T00:46:12;18.77;;;13.90;;
17714;SDS011;8977;50.902;4.314;2024-03-08T00:48:40;18.30;;;13.93;;
17714;SDS011;8977;50.902;4.314;2024-03-08T00:51:09;19.90;;;13.73;;
17714;SDS011;8977;50.902;4.314;2024-03-08T00:53:36;18.90;;;13.73;;
17714;SDS011;8977;50.902;4.314;2024-03-08T00:56:03;18.83;;;14.07;;
17714;SDS011;8977;50.902;4.314;2024-03-08T00:58:30;18.87;;;13.80;;
17714;SDS011;8977;50.902;4.314;2024-03-08T01:00:57;19.23;;;13.70;;
17714;SDS011;8977;50.902;4.314;2024-03-08T01:03:24;17.73;;;13.50;;
17714;SDS011;8977;50.902;4.314;2024-03-08T01:05:51;20.23;;;13.70;;
17714;SDS011;8977;50.902;4.314;2024-03-08T01:08:20;20.73;;;14.07;;
17714;SDS011;8977;50.902;4.314;2024-03-08T01:10:47;19.33;;;14.47;;
17714;SDS011;8977;50.902;4.314;2024-03-08T01:13:15;17.77;;;14.10;;
17714;SDS011;8977;50.902;4.314;2024-03-08T01:15:44;20.80;;;14.43;;
17714;SDS011;8977;50.902;4.314;2024-03-08T01:18:11;19.13;;;13.93;;
17714;SDS011;8977;50.902;4.314;2024-03-08T01:20:38;18.87;;;13.70;;
17714;SDS011;8977;50.902;4.314;2024-03-08T01:23:06;20.50;;;14.43;;
17714;SDS011;8977;50.902;4.314;2024-03-08T01:25:34;20.23;;;14.47;;
17714;SDS011;8977;50.902;4.314;2024-03-08T01:28:03;22.07;;;15.00;;
17714;SDS011;8977;50.902;4.314;2024-03-08T01:30:30;20.00;;;14.13;;
17714;SDS011;8977;50.902;4.314;2024-03-08T01:33:00;20.67;;;14.87;;
17714;SDS011;8977;50.902;4.314;2024-03-08T01:35:27;20.47;;;15.17;;
17714;SDS011;8977;50.902;4.314;2024-03-08T01:37:54;22.83;;;14.70;;
17714;SDS011;8977;50.902;4.314;2024-03-08T01:40:21;23.17;;;15.40;;
17714;SDS011;8977;50.902;4.314;2024-03-08T01:42:50;20.90;;;14.73;;
17714;SDS011;8977;50.902;4.314;2024-03-08T01:45:19;20.73;;;14.63;;
17714;SDS011;8977;50.902;4.314;2024-03-08T01:47:46;21.13;;;15.17;;
17714;SDS011;8977;50.902;4.314;2024-03-08T01:50:13;22.07;;;15.87;;
17714;SDS011;8977;50.902;4.314;2024-03-08T01:52:41;21.37;;;15.13;;
17714;SDS011;8977;50.902;4.314;2024-03-08T01:55:08;22.20;;;15.60;;
17714;SDS011;8977;50.902;4.314;2024-03-08T01:57:36;20.60;;;15.13;;
17714;SDS011;8977;50.902;4.314;2024-03-08T02:00:05;21.20;;;16.17;;
17714;SDS011;8977;50.902;4.314;2024-03-08T02:02:35;21.90;;;15.17;;
17714;SDS011;8977;50.902;4.314;2024-03-08T02:05:04;21.23;;;14.47;;
17714;SDS011;8977;50.902;4.314;2024-03-08T02:07:32;21.43;;;15.47;;
17714;SDS011;8977;50.902;4.314;2024-03-08T02:09:59;22.20;;;14.97;;
17714;SDS011;8977;50.902;4.314;2024-03-08T02:12:26;24.77;;;15.70;;
17714;SDS011;8977;50.902;4.314;2024-03-08T02:14:53;22.77;;;15.70;;
17714;SDS011;8977;50.902;4.314;2024-03-08T02:17:22;27.60;;;16.30;;
17714;SDS011;8977;50.902;4.314;2024-03-08T02:19:49;22.77;;;15.83;;
17714;SDS011;8977;50.902;4.314;2024-03-08T02:22:18;19.77;;;15.00;;
17714;SDS011;8977;50.902;4.314;2024-03-08T02:24:45;20.57;;;15.90;;
17714;SDS011;8977;50.902;4.314;2024-03-08T02:27:12;22.40;;;16.33;;
17714;SDS011;8977;50.902;4.314;2024-03-08T02:29:39;24.00;;;15.80;;
17714;SDS011;8977;50.902;4.314;2024-03-08T02:32:09;21.90;;;16.33;;
17714;SDS011;8977;50.902;4.314;2024-03-08T02:34:36;22.67;;;16.70;;
17714;SDS011;8977;50.902;4.314;2024-03-08T02:37:03;21.37;;;16.40;;
17714;SDS011;8977;50.902;4.314;2024-03-08T02:39:31;22.57;;;16.97;;
17714;SDS011;8977;50.902;4.314;2024-03-08T02:41:58;20.50;;;16.23;;
17714;SDS011;8977;50.902;4.314;2024-03-08T02:44:25;20.20;;;16.20;;
17714;SDS011;8977;50.902;4.314;2024-03-08T02:46:52;22.63;;;15.97;;
17714;SDS011;8977;50.902;4.314;2024-03-08T02:49:20;21.27;;;16.50;;
17714;SDS011;8977;50.902;4.314;2024-03-08T02:51:47;25.30;;;17.43;;
17714;SDS011;8977;50.902;4.314;2024-03-08T02:54:14;21.57;;;16.67;;
17714;SDS011;8977;50.902;4.314;2024-03-08T02:56:43;21.33;;;16.80;;
17714;SDS011;8977;50.902;4.314;2024-03-08T02:59:11;20.97;;;16.50;;
17714;SDS011;8977;50.902;4.314;2024-03-08T03:01:38;22.57;;;17.07;;
17714;SDS011;8977;50.902;4.314;2024-03-08T03:04:06;20.40;;;16.17;;
17714;SDS011;8977;50.902;4.314;2024-03-08T03:06:33;24.60;;;16.77;;
17714;SDS011;8977;50.902;4.314;2024-03-08T03:09:00;26.03;;;18.07;;
17714;SDS011;8977;50.902;4.314;2024-03-08T03:11:31;21.70;;;16.87;;
17714;SDS011;8977;50.902;4.314;2024-03-08T03:13:59;21.70;;;16.57;;
17714;SDS011;8977;50.902;4.314;2024-03-08T03:16:26;20.27;;;15.80;;
17714;SDS011;8977;50.902;4.314;2024-03-08T03:18:53;22.07;;;17.63;;
17714;SDS011;8977;50.902;4.314;2024-03-08T03:21:22;22.43;;;17.70;;
17714;SDS011;8977;50.902;4.314;2024-03-08T03:23:49;19.83;;;16.27;;
17714;SDS011;8977;50.902;4.314;2024-03-08T03:26:16;20.73;;;17.13;;
17714;SDS011;8977;50.902;4.314;2024-03-08T03:28:43;22.17;;;17.57;;
17714;SDS011;8977;50.902;4.314;2024-03-08T03:31:12;21.83;;;17.43;;
17714;SDS011;8977;50.902;4.314;2024-03-08T03:33:39;22.17;;;18.13;;
17714;SDS011;8977;50.902;4.314;2024-03-08T03:36:06;22.80;;;16.77;;
17714;SDS011;8977;50.902;4.314;2024-03-08T03:38:35;19.53;;;16.87;;
17714;SDS011;8977;50.902;4.314;2024-03-08T03:41:01;21.80;;;17.57;;
17714;SDS011;8977;50.902;4.314;2024-03-08T03:43:36;22.17;;;17.77;;
17714;SDS011;8977;50.902;4.314;2024-03-08T03:46:05;20.50;;;17.17;;
17714;SDS011;8977;50.902;4.314;2024-03-08T03:48:34;21.73;;;17.30;;
17714;SDS011;8977;50.902;4.314;2024-03-08T03:51:01;22.40;;;17.33;;
17714;SDS011;8977;50.902;4.314;2024-03-08T03:53:29;22.73;;;18.13;;
17714;SDS011;8977;50.902;4.314;2024-03-08T03:55:56;22.10;;;17.97;;
17714;SDS011;8977;50.902;4.314;2024-03-08T03:58:24;24.10;;;18.83;;
17714;SDS011;8977;50.902;4.314;2024-03-08T04:00:52;22.73;;;17.90;;
17714;SDS011;8977;50.902;4.314;2024-03-08T04:03:19;23.83;;;18.47;;
17714;SDS011;8977;50.902;4.314;2024-03-08T04:05:48;22.90;;;18.17;;
17714;SDS011;8977;50.902;4.314;2024-03-08T04:08:16;21.30;;;17.83;;
17714;SDS011;8977;50.902;4.314;2024-03-08T04:10:43;23.03;;;18.10;;
17714;SDS011;8977;50.902;4.314;2024-03-08T04:13:10;22.10;;;18.33;;
17714;SDS011;8977;50.902;4.314;2024-03-08T04:15:37;23.10;;;18.00;;
17714;SDS011;8977;50.902;4.314;2024-03-08T04:18:04;22.27;;;18.07;;
17714;SDS011;8977;50.902;4.314;2024-03-08T04:20:32;21.27;;;18.17;;
17714;SDS011;8977;50.902;4.314;2024-03-08T04:23:00;23.43;;;17.83;;
17714;SDS011;8977;50.902;4.314;2024-03-08T04:25:27;23.13;;;17.90;;
17714;SDS011;8977;50.902;4.314;2024-03-08T04:27:54;24.00;;;18.20;;
17714;SDS011;8977;50.902;4.314;2024-03-08T04:30:21;21.40;;;17.00;;
17714;SDS011;8977;50.902;4.314;2024-03-08T04:32:48;21.47;;;17.70;;
17714;SDS011;8977;50.902;4.314;2024-03-08T04:35:15;21.90;;;17.77;;
17714;SDS011;8977;50.902;4.314;2024-03-08T04:37:42;21.03;;;17.13;;
17714;SDS011;8977;50.902;4.314;2024-03-08T04:40:11;21.37;;;18.27;;
17714;SDS011;8977;50.902;4.314;2024-03-08T04:42:39;23.43;;;17.80;;
17714;SDS011;8977;50.902;4.314;2024-03-08T04:45:07;21.57;;;17.57;;
17714;SDS011;8977;50.902;4.314;2024-03-08T04:47:36;27.70;;;18.00;;
17714;SDS011;8977;50.902;4.314;2024-03-08T04:50:03;21.97;;;17.43;;
17714;SDS011;8977;50.902;4.314;2024-03-08T04:52:30;21.43;;;17.93;;
17714;SDS011;8977;50.902;4.314;2024-03-08T04:54:57;20.93;;;17.70;;
17714;SDS011;8977;50.902;4.314;2024-03-08T04:57:26;23.27;;;18.20;;
17714;SDS011;8977;50.902;4.314;2024-03-08T04:59:54;22.90;;;18.53;;
17714;SDS011;8977;50.902;4.314;2024-03-08T05:02:21;22.20;;;17.53;;
17714;SDS011;8977;50.902;4.314;2024-03-08T05:04:48;22.67;;;18.30;;
17714;SDS011;8977;50.902;4.314;2024-03-08T05:07:16;23.83;;;17.67;;
17714;SDS011;8977;50.902;4.314;2024-03-08T05:09:42;21.03;;;17.87;;
17714;SDS011;8977;50.902;4.314;2024-03-08T05:12:16;22.73;;;18.07;;
17714;SDS011;8977;50.902;4.314;2024-03-08T05:14:46;24.07;;;18.47;;
17714;SDS011;8977;50.902;4.314;2024-03-08T05:17:14;21.17;;;17.33;;
17714;SDS011;8977;50.902;4.314;2024-03-08T05:19:42;23.20;;;18.23;;
17714;SDS011;8977;50.902;4.314;2024-03-08T05:22:09;22.80;;;17.13;;
17714;SDS011;8977;50.902;4.314;2024-03-08T05:24:36;22.47;;;17.47;;
17714;SDS011;8977;50.902;4.314;2024-03-08T05:27:03;22.27;;;17.63;;
17714;SDS011;8977;50.902;4.314;2024-03-08T05:29:31;23.00;;;17.93;;
17714;SDS011;8977;50.902;4.314;2024-03-08T05:31:59;21.30;;;18.00;;
17714;SDS011;8977;50.902;4.314;2024-03-08T05:34:28;21.53;;;18.00;;
17714;SDS011;8977;50.902;4.314;2024-03-08T05:36:54;23.90;;;18.07;;
17714;SDS011;8977;50.902;4.314;2024-03-08T05:39:24;21.37;;;18.40;;
17714;SDS011;8977;50.902;4.314;2024-03-08T05:41:51;26.30;;;18.53;;
17714;SDS011;8977;50.902;4.314;2024-03-08T05:44:18;20.80;;;17.40;;
17714;SDS011;8977;50.902;4.314;2024-03-08T05:46:45;22.73;;;17.10;;
17714;SDS011;8977;50.902;4.314;2024-03-08T05:49:13;26.27;;;18.97;;
17714;SDS011;8977;50.902;4.314;2024-03-08T05:51:41;21.50;;;17.30;;
17714;SDS011;8977;50.902;4.314;2024-03-08T05:54:08;21.13;;;17.00;;
17714;SDS011;8977;50.902;4.314;2024-03-08T05:56:36;24.60;;;19.10;;
17714;SDS011;8977;50.902;4.314;2024-03-08T05:59:03;22.20;;;17.60;;
17714;SDS011;8977;50.902;4.314;2024-03-08T06:01:30;22.37;;;18.43;;
17714;SDS011;8977;50.902;4.314;2024-03-08T06:03:58;22.83;;;17.20;;
17714;SDS011;8977;50.902;4.314;2024-03-08T06:06:26;23.37;;;17.50;;
17714;SDS011;8977;50.902;4.314;2024-03-08T06:08:53;22.13;;;17.57;;
17714;SDS011;8977;50.902;4.314;2024-03-08T06:11:21;23.10;;;17.27;;
17714;SDS011;8977;50.902;4.314;2024-03-08T06:13:48;23.33;;;18.27;;
17714;SDS011;8977;50.902;4.314;2024-03-08T06:16:15;24.80;;;17.77;;
17714;SDS011;8977;50.902;4.314;2024-03-08T06:18:42;23.37;;;17.73;;
17714;SDS011;8977;50.902;4.314;2024-03-08T06:21:09;22.77;;;17.13;;
17714;SDS011;8977;50.902;4.314;2024-03-08T06:23:39;26.53;;;18.63;;
17714;SDS011;8977;50.902;4.314;2024-03-08T06:26:06;28.83;;;18.20;;
17714;SDS011;8977;50.902;4.314;2024-03-08T06:28:34;23.67;;;18.77;;
17714;SDS011;8977;50.902;4.314;2024-03-08T06:31:01;22.40;;;18.53;;
17714;SDS011;8977;50.902;4.314;2024-03-08T06:33:28;23.97;;;17.83;;
17714;SDS011;8977;50.902;4.314;2024-03-08T06:35:57;24.30;;;17.43;;
17714;SDS011;8977;50.902;4.314;2024-03-08T06:38:24;20.83;;;17.43;;
17714;SDS011;8977;50.902;4.314;2024-03-08T06:40:52;25.20;;;18.97;;
17714;SDS011;8977;50.902;4.314;2024-03-08T06:43:19;22.90;;;17.83;;
17714;SDS011;8977;50.902;4.314;2024-03-08T06:45:46;21.70;;;17.60;;
17714;SDS011;8977;50.902;4.314;2024-03-08T06:48:14;23.93;;;17.80;;
17714;SDS011;8977;50.902;4.314;2024-03-08T06:50:42;25.00;;;18.30;;
17714;SDS011;8977;50.902;4.314;2024-03-08T06:53:09;24.60;;;18.00;;
17714;SDS011;8977;50.902;4.314;2024-03-08T06:55:36;22.03;;;18.30;;
17714;SDS011;8977;50.902;4.314;2024-03-08T06:58:05;23.63;;;18.33;;
17714;SDS011;8977;50.902;4.314;2024-03-08T07:00:32;23.27;;;17.50;;
17714;SDS011;8977;50.902;4.314;2024-03-08T07:02:59;25.97;;;18.47;;
17714;SDS011;8977;50.902;4.314;2024-03-08T07:05:27;23.40;;;19.17;;
17714;SDS011;8977;50.902;4.314;2024-03-08T07:07:54;24.40;;;18.07;;
17714;SDS011;8977;50.902;4.314;2024-03-08T07:10:21;24.07;;;18.73;;
17714;SDS011;8977;50.902;4.314;2024-03-08T07:12:49;25.13;;;18.60;;
17714;SDS011;8977;50.902;4.314;2024-03-08T07:15:18;24.60;;;18.03;;
17714;SDS011;8977;50.902;4.314;2024-03-08T07:17:46;24.00;;;18.00;;
17714;SDS011;8977;50.902;4.314;2024-03-08T07:20:13;21.83;;;16.97;;
17714;SDS011;8977;50.902;4.314;2024-03-08T07:22:44;24.03;;;17.97;;
17714;SDS011;8977;50.902;4.314;2024-03-08T07:25:12;23.17;;;18.00;;
17714;SDS011;8977;50.902;4.314;2024-03-08T07:27:46;22.33;;;18.07;;
17714;SDS011;8977;50.902;4.314;2024-03-08T07:30:13;24.67;;;17.67;;
17714;SDS011;8977;50.902;4.314;2024-03-08T07:33:05;23.90;;;17.03;;
17714;SDS011;8977;50.902;4.314;2024-03-08T07:35:32;26.27;;;17.87;;
17714;SDS011;8977;50.902;4.314;2024-03-08T07:38:01;25.23;;;17.90;;
17714;SDS011;8977;50.902;4.314;2024-03-08T07:40:30;23.43;;;16.77;;
17714;SDS011;8977;50.902;4.314;2024-03-08T07:42:57;23.17;;;17.77;;
17714;SDS011;8977;50.902;4.314;2024-03-08T07:45:24;24.60;;;17.67;;
17714;SDS011;8977;50.902;4.314;2024-03-08T07:47:51;23.93;;;17.97;;
17714;SDS011;8977;50.902;4.314;2024-03-08T07:50:19;24.20;;;18.13;;
17714;SDS011;8977;50.902;4.314;2024-03-08T07:52:48;24.10;;;17.27;;
17714;SDS011;8977;50.902;4.314;2024-03-08T07:55:15;26.57;;;19.47;;
17714;SDS011;8977;50.902;4.314;2024-03-08T07:57:42;25.20;;;19.07;;
17714;SDS011;8977;50.902;4.314;2024-03-08T08:00:09;28.97;;;18.83;;
17714;SDS011;8977;50.902;4.314;2024-03-08T08:02:42;26.90;;;18.17;;
17714;SDS011;8977;50.902;4.314;2024-03-08T08:05:10;24.90;;;18.40;;
17714;SDS011;8977;50.902;4.314;2024-03-08T08:07:39;23.57;;;17.27;;
17714;SDS011;8977;50.902;4.314;2024-03-08T08:10:09;24.80;;;17.37;;
17714;SDS011;8977;50.902;4.314;2024-03-08T08:12:41;25.60;;;17.23;;
17714;SDS011;8977;50.902;4.314;2024-03-08T08:15:08;25.07;;;18.07;;
17714;SDS011;8977;50.902;4.314;2024-03-08T08:17:35;23.47;;;17.83;;
17714;SDS011;8977;50.902;4.314;2024-03-08T08:20:04;28.03;;;18.00;;
17714;SDS011;8977;50.902;4.314;2024-03-08T08:22:31;25.80;;;18.40;;
17714;SDS011;8977;50.902;4.314;2024-03-08T08:24:59;25.03;;;18.20;;
17714;SDS011;8977;50.902;4.314;2024-03-08T08:27:26;27.60;;;18.60;;
17714;SDS011;8977;50.902;4.314;2024-03-08T08:29:53;23.10;;;16.90;;
17714;SDS011;8977;50.902;4.314;2024-03-08T08:32:20;24.43;;;17.50;;
17714;SDS011;8977;50.902;4.314;2024-03-08T08:34:47;22.30;;;16.67;;
17714;SDS011;8977;50.902;4.314;2024-03-08T08:37:14;25.07;;;17.43;;
17714;SDS011;8977;50.902;4.314;2024-03-08T08:39:41;23.77;;;17.27;;
17714;SDS011;8977;50.902;4.314;2024-03-08T08:42:10;22.93;;;17.17;;
17714;SDS011;8977;50.902;4.314;2024-03-08T08:44:37;23.47;;;17.13;;
17714;SDS011;8977;50.902;4.314;2024-03-08T08:47:04;22.87;;;16.90;;
17714;SDS011;8977;50.902;4.314;2024-03-08T08:49:32;23.63;;;17.17;;
17714;SDS011;8977;50.902;4.314;2024-03-08T08:52:00;24.70;;;17.13;;
17714;SDS011;8977;50.902;4.314;2024-03-08T08:54:28;22.87;;;16.83;;
17714;SDS011;8977;50.902;4.314;2024-03-08T08:56:56;24.90;;;17.30;;
17714;SDS011;8977;50.902;4.314;2024-03-08T08:59:24;24.90;;;17.77;;
17714;SDS011;8977;50.902;4.314;2024-03-08T09:01:51;21.80;;;16.70;;
17714;SDS011;8977;50.902;4.314;2024-03-08T09:04:19;22.70;;;16.93;;
17714;SDS011;8977;50.902;4.314;2024-03-08T09:06:48;27.07;;;17.30;;
17714;SDS011;8977;50.902;4.314;2024-03-08T09:09:15;22.17;;;16.60;;
17714;SDS011;8977;50.902;4.314;2024-03-08T09:11:42;22.47;;;16.73;;
17714;SDS011;8977;50.902;4.314;2024-03-08T09:14:09;20.40;;;16.07;;
17714;SDS011;8977;50.902;4.314;2024-03-08T09:16:38;21.57;;;16.93;;
17714;SDS011;8977;50.902;4.314;2024-03-08T09:19:05;20.30;;;15.90;;
17714;SDS011;8977;50.902;4.314;2024-03-08T09:21:32;23.50;;;17.13;;
17714;SDS011;8977;50.902;4.314;2024-03-08T09:24:00;21.20;;;16.57;;
17714;SDS011;8977;50.902;4.314;2024-03-08T09:26:27;20.20;;;15.37;;
17714;SDS011;8977;50.902;4.314;2024-03-08T09:28:53;19.57;;;14.87;;
17714;SDS011;8977;50.902;4.314;2024-03-08T09:31:21;22.57;;;15.93;;
17714;SDS011;8977;50.902;4.314;2024-03-08T09:33:49;21.60;;;15.50;;
17714;SDS011;8977;50.902;4.314;2024-03-08T09:36:17;19.87;;;15.03;;
17714;SDS011;8977;50.902;4.314;2024-03-08T09:38:45;20.70;;;14.90;;
17714;SDS011;8977;50.902;4.314;2024-03-08T09:41:12;19.60;;;15.00;;
17714;SDS011;8977;50.902;4.314;2024-03-08T09:43:39;18.50;;;14.27;;
17714;SDS011;8977;50.902;4.314;2024-03-08T09:46:06;20.43;;;14.27;;
17714;SDS011;8977;50.902;4.314;2024-03-08T09:48:35;17.90;;;14.33;;
17714;SDS011;8977;50.902;4.314;2024-03-08T09:51:05;19.93;;;14.67;;
17714;SDS011;8977;50.902;4.314;2024-03-08T09:53:32;18.83;;;14.40;;
17714;SDS011;8977;50.902;4.314;2024-03-08T09:55:59;17.33;;;13.47;;
17714;SDS011;8977;50.902;4.314;2024-03-08T09:58:29;18.13;;;13.33;;
17714;SDS011;8977;50.902;4.314;2024-03-08T10:01:16;19.10;;;14.37;;
17714;SDS011;8977;50.902;4.314;2024-03-08T10:03:43;17.73;;;13.33;;
17714;SDS011;8977;50.902;4.314;2024-03-08T10:06:14;20.13;;;14.87;;
17714;SDS011;8977;50.902;4.314;2024-03-08T10:08:41;21.53;;;14.53;;
17714;SDS011;8977;50.902;4.314;2024-03-08T10:11:10;19.50;;;14.83;;
17714;SDS011;8977;50.902;4.314;2024-03-08T10:13:37;19.70;;;14.30;;
17714;SDS011;8977;50.902;4.314;2024-03-08T10:16:07;16.00;;;13.13;;
17714;SDS011;8977;50.902;4.314;2024-03-08T10:18:34;19.37;;;14.70;;
17714;SDS011;8977;50.902;4.314;2024-03-08T10:21:02;18.73;;;13.90;;
17714;SDS011;8977;50.902;4.314;2024-03-08T10:23:32;16.97;;;13.43;;
17714;SDS011;8977;50.902;4.314;2024-03-08T10:26:09;17.17;;;12.67;;
17714;SDS011;8977;50.902;4.314;2024-03-08T10:28:39;19.67;;;13.93;;
17714;SDS011;8977;50.902;4.314;2024-03-08T10:31:07;18.53;;;13.90;;
17714;SDS011;8977;50.902;4.314;2024-03-08T10:33:36;18.47;;;13.77;;
17714;SDS011;8977;50.902;4.314;2024-03-08T10:36:05;18.47;;;13.37;;
17714;SDS011;8977;50.902;4.314;2024-03-08T10:38:36;16.90;;;13.03;;
17714;SDS011;8977;50.902;4.314;2024-03-08T10:41:05;19.03;;;13.33;;
17714;SDS011;8977;50.902;4.314;2024-03-08T10:43:36;18.87;;;13.47;;
17714;SDS011;8977;50.902;4.314;2024-03-08T10:46:16;19.73;;;13.57;;
17714;SDS011;8977;50.902;4.314;2024-03-08T10:48:55;17.83;;;14.00;;
17714;SDS011;8977;50.902;4.314;2024-03-08T10:51:24;19.50;;;14.57;;
17714;SDS011;8977;50.902;4.314;2024-03-08T10:53:53;18.60;;;13.30;;
17714;SDS011;8977;50.902;4.314;2024-03-08T10:56:23;21.77;;;14.53;;
17714;SDS011;8977;50.902;4.314;2024-03-08T10:58:52;18.97;;;14.13;;
17714;SDS011;8977;50.902;4.314;2024-03-08T11:01:20;16.57;;;12.97;;
17714;SDS011;8977;50.902;4.314;2024-03-08T11:03:49;17.90;;;13.90;;
17714;SDS011;8977;50.902;4.314;2024-03-08T11:06:18;16.30;;;13.10;;
17714;SDS011;8977;50.902;4.314;2024-03-08T11:08:49;16.37;;;13.33;;
17714;SDS011;8977;50.902;4.314;2024-03-08T11:11:27;17.30;;;13.37;;
17714;SDS011;8977;50.902;4.314;2024-03-08T11:13:59;18.27;;;13.53;;
17714;SDS011;8977;50.902;4.314;2024-03-08T11:16:37;19.43;;;13.80;;
17714;SDS011;8977;50.902;4.314;2024-03-08T11:19:23;17.93;;;13.60;;
17714;SDS011;8977;50.902;4.314;2024-03-08T11:21:57;20.07;;;13.57;;
17714;SDS011;8977;50.902;4.314;2024-03-08T11:24:25;19.97;;;14.00;;
17714;SDS011;8977;50.902;4.314;2024-03-08T11:26:55;17.30;;;13.43;;
17714;SDS011;8977;50.902;4.314;2024-03-08T11:29:32;17.37;;;12.60;;
17714;SDS011;8977;50.902;4.314;2024-03-08T11:32:04;17.30;;;13.97;;
17714;SDS011;8977;50.902;4.314;2024-03-08T11:34:33;17.33;;;12.97;;
17714;SDS011;8977;50.902;4.314;2024-03-08T11:37:00;17.23;;;13.00;;
17714;SDS011;8977;50.902;4.314;2024-03-08T11:39:29;17.47;;;12.63;;
17714;SDS011;8977;50.902;4.314;2024-03-08T11:41:58;17.90;;;12.73;;
17714;SDS011;8977;50.902;4.314;2024-03-08T11:44:26;16.03;;;12.90;;
17714;SDS011;8977;50.902;4.314;2024-03-08T11:46:53;17.67;;;12.73;;
17714;SDS011;8977;50.902;4.314;2024-03-08T11:49:20;17.90;;;13.30;;
17714;SDS011;8977;50.902;4.314;2024-03-08T11:51:50;18.27;;;13.40;;
17714;SDS011;8977;50.902;4.314;2024-03-08T11:54:18;15.87;;;13.07;;
17714;SDS011;8977;50.902;4.314;2024-03-08T11:56:46;15.97;;;13.57;;
17714;SDS011;8977;50.902;4.314;2024-03-08T11:59:14;15.70;;;13.50;;
17714;SDS011;8977;50.902;4.314;2024-03-08T12:01:42;15.20;;;12.97;;
17714;SDS011;8977;50.902;4.314;2024-03-08T12:04:11;16.87;;;13.70;;
17714;SDS011;8977;50.902;4.314;2024-03-08T12:06:39;17.33;;;13.53;;
17714;SDS011;8977;50.902;4.314;2024-03-08T12:09:09;19.63;;;12.87;;
17714;SDS011;8977;50.902;4.314;2024-03-08T12:11:40;14.47;;;12.23;;
17714;SDS011;8977;50.902;4.314;2024-03-08T12:14:08;16.77;;;13.00;;
17714;SDS011;8977;50.902;4.314;2024-03-08T12:16:37;17.27;;;12.90;;
17714;SDS011;8977;50.902;4.314;2024-03-08T12:19:04;18.23;;;12.87;;
17714;SDS011;8977;50.902;4.314;2024-03-08T12:21:31;18.17;;;12.70;;
17714;SDS011;8977;50.902;4.314;2024-03-08T12:24:03;16.83;;;12.87;;
17714;SDS011;8977;50.902;4.314;2024-03-08T12:26:34;15.80;;;12.47;;
17714;SDS011;8977;50.902;4.314;2024-03-08T12:29:15;14.90;;;12.93;;
17714;SDS011;8977;50.902;4.314;2024-03-08T12:31:44;15.27;;;12.77;;
17714;SDS011;8977;50.902;4.314;2024-03-08T12:34:12;16.93;;;12.63;;
17714;SDS011;8977;50.902;4.314;2024-03-08T12:36:49;15.80;;;12.40;;
17714;SDS011;8977;50.902;4.314;2024-03-08T12:39:19;16.33;;;12.13;;
17714;SDS011;8977;50.902;4.314;2024-03-08T12:41:52;15.57;;;12.53;;
17714;SDS011;8977;50.902;4.314;2024-03-08T12:44:19;15.17;;;12.10;;
17714;SDS011;8977;50.902;4.314;2024-03-08T12:46:48;16.03;;;12.47;;
17714;SDS011;8977;50.902;4.314;2024-03-08T12:49:16;15.60;;;12.70;;
17714;SDS011;8977;50.902;4.314;2024-03-08T12:51:43;15.57;;;11.83;;
17714;SDS011;8977;50.902;4.314;2024-03-08T12:54:11;15.13;;;12.33;;
17714;SDS011;8977;50.902;4.314;2024-03-08T12:56:37;17.03;;;11.93;;
17714;SDS011;8977;50.902;4.314;2024-03-08T12:59:05;15.90;;;12.47;;
17714;SDS011;8977;50.902;4.314;2024-03-08T13:01:33;16.63;;;12.50;;
17714;SDS011;8977;50.902;4.314;2024-03-08T13:04:03;15.87;;;12.63;;
17714;SDS011;8977;50.902;4.314;2024-03-08T13:06:31;13.83;;;12.00;;
17714;SDS011;8977;50.902;4.314;2024-03-08T13:08:58;15.03;;;11.77;;
17714;SDS011;8977;50.902;4.314;2024-03-08T13:11:30;14.67;;;11.80;;
17714;SDS011;8977;50.902;4.314;2024-03-08T13:13:59;14.57;;;11.80;;
17714;SDS011;8977;50.902;4.314;2024-03-08T13:16:27;16.23;;;12.43;;
17714;SDS011;8977;50.902;4.314;2024-03-08T13:18:54;14.47;;;11.83;;
17714;SDS011;8977;50.902;4.314;2024-03-08T13:21:23;17.67;;;12.37;;
17714;SDS011;8977;50.902;4.314;2024-03-08T13:23:50;14.40;;;11.17;;
17714;SDS011;8977;50.902;4.314;2024-03-08T13:26:18;14.63;;;12.03;;
17714;SDS011;8977;50.902;4.314;2024-03-08T13:28:45;13.93;;;11.20;;
17714;SDS011;8977;50.902;4.314;2024-03-08T13:31:13;17.27;;;12.17;;
17714;SDS011;8977;50.902;4.314;2024-03-08T13:33:41;15.17;;;11.80;;
17714;SDS011;8977;50.902;4.314;2024-03-08T13:36:11;15.30;;;11.77;;
17714;SDS011;8977;50.902;4.314;2024-03-08T13:38:43;14.33;;;11.50;;
17714;SDS011;8977;50.902;4.314;2024-03-08T13:41:10;19.23;;;11.63;;
17714;SDS011;8977;50.902;4.314;2024-03-08T13:43:39;14.90;;;11.03;;
17714;SDS011;8977;50.902;4.314;2024-03-08T13:46:07;13.83;;;11.37;;
17714;SDS011;8977;50.902;4.314;2024-03-08T13:48:35;16.07;;;11.63;;
17714;SDS011;8977;50.902;4.314;2024-03-08T13:51:03;13.67;;;11.20;;
17714;SDS011;8977;50.902;4.314;2024-03-08T13:53:31;14.20;;;11.47;;
17714;SDS011;8977;50.902;4.314;2024-03-08T13:56:01;16.23;;;11.47;;
17714;SDS011;8977;50.902;4.314;2024-03-08T13:58:28;14.83;;;11.47;;
17714;SDS011;8977;50.902;4.314;2024-03-08T14:00:55;14.70;;;11.80;;
17714;SDS011;8977;50.902;4.314;2024-03-08T14:03:22;14.80;;;11.57;;
17714;SDS011;8977;50.902;4.314;2024-03-08T14:05:49;13.53;;;10.97;;
17714;SDS011;8977;50.902;4.314;2024-03-08T14:08:16;14.17;;;11.13;;
17714;SDS011;8977;50.902;4.314;2024-03-08T14:10:43;14.87;;;11.60;;
17714;SDS011;8977;50.902;4.314;2024-03-08T14:13:13;13.03;;;10.73;;
17714;SDS011;8977;50.902;4.314;2024-03-08T14:15:41;14.83;;;11.87;;
17714;SDS011;8977;50.902;4.314;2024-03-08T14:18:09;13.33;;;10.83;;
17714;SDS011;8977;50.902;4.314;2024-03-08T14:20:38;13.70;;;11.77;;
17714;SDS011;8977;50.902;4.314;2024-03-08T14:23:05;16.40;;;11.90;;
17714;SDS011;8977;50.902;4.314;2024-03-08T14:25:33;16.40;;;12.37;;
17714;SDS011;8977;50.902;4.314;2024-03-08T14:28:00;15.63;;;11.60;;
17714;SDS011;8977;50.902;4.314;2024-03-08T14:30:30;15.90;;;12.03;;
17714;SDS011;8977;50.902;4.314;2024-03-08T14:33:03;15.93;;;11.70;;
17714;SDS011;8977;50.902;4.314;2024-03-08T14:35:34;13.97;;;12.37;;
17714;SDS011;8977;50.902;4.314;2024-03-08T14:38:01;13.70;;;11.47;;
17714;SDS011;8977;50.902;4.314;2024-03-08T14:40:28;15.30;;;11.90;;